sensor_id;sensor_type;location;lat;lon;timestamp;P1;durP1;ratioP1;P2;durP2;ratioP2
5616;SDS011;2830;50.656;7.568;2023-04-15T00:01:04;13.93;;;3.30;;
5616;SDS011;2830;50.656;7.568;2023-04-15T00:03:31;12.00;;;3.80;;
5616;SDS011;2830;50.656;7.568;2023-04-15T00:06:00;12.18;;;3.38;;
5616;SDS011;2830;50.656;7.568;2023-04-15T00:08:26;12.55;;;3.35;;
5616;SDS011;2830;50.656;7.568;2023-04-15T00:10:55;12.70;;;3.22;;
5616;SDS011;2830;50.656;7.568;2023-04-15T00:13:21;13.27;;;3.30;;
5616;SDS011;2830;50.656;7.568;2023-04-15T00:15:48;14.15;;;3.58;;
5616;SDS011;2830;50.656;7.568;2023-04-15T00:18:15;14.90;;;3.53;;
5616;SDS011;2830;50.656;7.568;2023-04-15T00:20:42;12.90;;;3.97;;
5616;SDS011;2830;50.656;7.568;2023-04-15T00:23:08;11.15;;;2.40;;
5616;SDS011;2830;50.656;7.568;2023-04-15T00:25:35;11.68;;;3.60;;
5616;SDS011;2830;50.656;7.568;2023-04-15T00:28:02;11.43;;;3.13;;
5616;SDS011;2830;50.656;7.568;2023-04-15T00:30:29;10.73;;;2.75;;
5616;SDS011;2830;50.656;7.568;2023-04-15T00:32:56;13.50;;;4.10;;
5616;SDS011;2830;50.656;7.568;2023-04-15T00:35:23;10.50;;;3.10;;
5616;SDS011;2830;50.656;7.568;2023-04-15T00:37:49;12.90;;;3.10;;
5616;SDS011;2830;50.656;7.568;2023-04-15T00:40:17;9.75;;;2.63;;
5616;SDS011;2830;50.656;7.568;2023-04-15T00:42:44;10.52;;;2.72;;
5616;SDS011;2830;50.656;7.568;2023-04-15T00:45:11;13.13;;;3.78;;
5616;SDS011;2830;50.656;7.568;2023-04-15T00:47:38;15.25;;;3.13;;
5616;SDS011;2830;50.656;7.568;2023-04-15T00:50:08;11.32;;;3.10;;
5616;SDS011;2830;50.656;7.568;2023-04-15T00:52:35;14.98;;;3.67;;
5616;SDS011;2830;50.656;7.568;2023-04-15T00:55:02;14.55;;;3.63;;
5616;SDS011;2830;50.656;7.568;2023-04-15T00:57:30;11.05;;;2.80;;
5616;SDS011;2830;50.656;7.568;2023-04-15T00:59:58;12.98;;;3.10;;
5616;SDS011;2830;50.656;7.568;2023-04-15T01:02:26;11.02;;;3.63;;
5616;SDS011;2830;50.656;7.568;2023-04-15T01:04:53;13.40;;;3.45;;
5616;SDS011;2830;50.656;7.568;2023-04-15T01:07:21;13.23;;;3.28;;
5616;SDS011;2830;50.656;7.568;2023-04-15T01:09:48;12.50;;;3.30;;
5616;SDS011;2830;50.656;7.568;2023-04-15T01:12:14;13.15;;;3.38;;
5616;SDS011;2830;50.656;7.568;2023-04-15T01:14:42;11.25;;;3.10;;
5616;SDS011;2830;50.656;7.568;2023-04-15T01:17:09;17.55;;;2.92;;
5616;SDS011;2830;50.656;7.568;2023-04-15T01:19:36;10.70;;;2.90;;
5616;SDS011;2830;50.656;7.568;2023-04-15T01:22:03;10.20;;;2.72;;
5616;SDS011;2830;50.656;7.568;2023-04-15T01:24:31;11.70;;;2.92;;
5616;SDS011;2830;50.656;7.568;2023-04-15T01:26:59;12.25;;;2.92;;
5616;SDS011;2830;50.656;7.568;2023-04-15T01:29:25;11.35;;;3.38;;
5616;SDS011;2830;50.656;7.568;2023-04-15T01:31:53;9.63;;;2.50;;
5616;SDS011;2830;50.656;7.568;2023-04-15T01:34:21;13.32;;;3.33;;
5616;SDS011;2830;50.656;7.568;2023-04-15T01:36:48;10.85;;;3.13;;
5616;SDS011;2830;50.656;7.568;2023-04-15T01:39:14;15.70;;;2.60;;
5616;SDS011;2830;50.656;7.568;2023-04-15T01:41:41;10.55;;;2.67;;
5616;SDS011;2830;50.656;7.568;2023-04-15T01:44:08;10.50;;;2.90;;
5616;SDS011;2830;50.656;7.568;2023-04-15T01:46:35;11.77;;;2.65;;
5616;SDS011;2830;50.656;7.568;2023-04-15T01:49:02;10.98;;;2.72;;
5616;SDS011;2830;50.656;7.568;2023-04-15T01:51:28;9.63;;;2.50;;
5616;SDS011;2830;50.656;7.568;2023-04-15T01:53:55;11.18;;;3.47;;
5616;SDS011;2830;50.656;7.568;2023-04-15T01:56:22;11.40;;;3.17;;
5616;SDS011;2830;50.656;7.568;2023-04-15T01:58:51;13.95;;;3.53;;
5616;SDS011;2830;50.656;7.568;2023-04-15T02:01:18;11.23;;;3.20;;
5616;SDS011;2830;50.656;7.568;2023-04-15T02:03:46;10.77;;;2.67;;
5616;SDS011;2830;50.656;7.568;2023-04-15T02:06:13;12.30;;;3.40;;
5616;SDS011;2830;50.656;7.568;2023-04-15T02:08:40;15.57;;;3.35;;
5616;SDS011;2830;50.656;7.568;2023-04-15T02:11:06;10.52;;;3.35;;
5616;SDS011;2830;50.656;7.568;2023-04-15T02:13:33;9.82;;;2.83;;
5616;SDS011;2830;50.656;7.568;2023-04-15T02:16:00;10.43;;;2.85;;
5616;SDS011;2830;50.656;7.568;2023-04-15T02:18:28;18.85;;;3.90;;
5616;SDS011;2830;50.656;7.568;2023-04-15T02:20:55;11.70;;;2.75;;
5616;SDS011;2830;50.656;7.568;2023-04-15T02:23:23;11.45;;;3.25;;
5616;SDS011;2830;50.656;7.568;2023-04-15T02:25:50;10.27;;;3.05;;
5616;SDS011;2830;50.656;7.568;2023-04-15T02:28:19;11.48;;;2.45;;
5616;SDS011;2830;50.656;7.568;2023-04-15T02:30:47;10.45;;;2.50;;
5616;SDS011;2830;50.656;7.568;2023-04-15T02:33:17;9.77;;;2.63;;
5616;SDS011;2830;50.656;7.568;2023-04-15T02:35:44;13.60;;;2.65;;
5616;SDS011;2830;50.656;7.568;2023-04-15T02:38:11;12.52;;;3.25;;
5616;SDS011;2830;50.656;7.568;2023-04-15T02:40:39;11.30;;;3.20;;
5616;SDS011;2830;50.656;7.568;2023-04-15T02:43:06;12.25;;;3.22;;
5616;SDS011;2830;50.656;7.568;2023-04-15T02:45:32;13.68;;;3.40;;
5616;SDS011;2830;50.656;7.568;2023-04-15T02:47:59;11.52;;;3.05;;
5616;SDS011;2830;50.656;7.568;2023-04-15T02:50:31;10.82;;;2.85;;
5616;SDS011;2830;50.656;7.568;2023-04-15T02:52:57;10.95;;;3.08;;
5616;SDS011;2830;50.656;7.568;2023-04-15T02:55:26;10.18;;;2.67;;
5616;SDS011;2830;50.656;7.568;2023-04-15T02:57:53;8.80;;;2.00;;
5616;SDS011;2830;50.656;7.568;2023-04-15T03:00:19;11.65;;;3.00;;
5616;SDS011;2830;50.656;7.568;2023-04-15T03:02:46;11.18;;;2.97;;
5616;SDS011;2830;50.656;7.568;2023-04-15T03:05:17;9.23;;;2.55;;
5616;SDS011;2830;50.656;7.568;2023-04-15T03:07:44;11.13;;;2.70;;
5616;SDS011;2830;50.656;7.568;2023-04-15T03:10:10;10.75;;;2.88;;
5616;SDS011;2830;50.656;7.568;2023-04-15T03:12:37;9.40;;;2.78;;
5616;SDS011;2830;50.656;7.568;2023-04-15T03:15:04;12.80;;;3.20;;
5616;SDS011;2830;50.656;7.568;2023-04-15T03:17:31;12.35;;;2.83;;
5616;SDS011;2830;50.656;7.568;2023-04-15T03:19:59;11.88;;;4.25;;
5616;SDS011;2830;50.656;7.568;2023-04-15T03:22:27;11.82;;;2.58;;
5616;SDS011;2830;50.656;7.568;2023-04-15T03:24:54;12.13;;;2.80;;
5616;SDS011;2830;50.656;7.568;2023-04-15T03:27:21;10.93;;;2.42;;
5616;SDS011;2830;50.656;7.568;2023-04-15T03:29:48;12.48;;;3.08;;
5616;SDS011;2830;50.656;7.568;2023-04-15T03:32:14;10.48;;;2.53;;
5616;SDS011;2830;50.656;7.568;2023-04-15T03:34:41;15.48;;;3.63;;
5616;SDS011;2830;50.656;7.568;2023-04-15T03:37:08;10.95;;;3.28;;
5616;SDS011;2830;50.656;7.568;2023-04-15T03:39:35;12.18;;;3.00;;
5616;SDS011;2830;50.656;7.568;2023-04-15T03:42:01;10.77;;;2.70;;
5616;SDS011;2830;50.656;7.568;2023-04-15T03:44:29;9.40;;;2.80;;
5616;SDS011;2830;50.656;7.568;2023-04-15T03:46:56;13.80;;;2.85;;
5616;SDS011;2830;50.656;7.568;2023-04-15T03:49:23;9.98;;;2.75;;
5616;SDS011;2830;50.656;7.568;2023-04-15T03:51:49;10.65;;;2.70;;
5616;SDS011;2830;50.656;7.568;2023-04-15T03:54:16;9.85;;;2.40;;
5616;SDS011;2830;50.656;7.568;2023-04-15T03:56:43;10.38;;;2.60;;
5616;SDS011;2830;50.656;7.568;2023-04-15T03:59:09;10.73;;;2.88;;
5616;SDS011;2830;50.656;7.568;2023-04-15T04:01:36;9.55;;;2.35;;
5616;SDS011;2830;50.656;7.568;2023-04-15T04:04:03;12.25;;;2.53;;
5616;SDS011;2830;50.656;7.568;2023-04-15T04:06:29;11.77;;;2.92;;
5616;SDS011;2830;50.656;7.568;2023-04-15T04:08:56;12.80;;;3.00;;
5616;SDS011;2830;50.656;7.568;2023-04-15T04:11:23;10.85;;;3.00;;
5616;SDS011;2830;50.656;7.568;2023-04-15T04:13:49;10.40;;;2.53;;
5616;SDS011;2830;50.656;7.568;2023-04-15T04:16:16;11.82;;;2.80;;
5616;SDS011;2830;50.656;7.568;2023-04-15T04:18:43;8.93;;;2.55;;
5616;SDS011;2830;50.656;7.568;2023-04-15T04:21:10;8.80;;;2.15;;
5616;SDS011;2830;50.656;7.568;2023-04-15T04:23:36;12.15;;;2.25;;
5616;SDS011;2830;50.656;7.568;2023-04-15T04:26:03;10.32;;;2.83;;
5616;SDS011;2830;50.656;7.568;2023-04-15T04:28:30;10.65;;;3.28;;
5616;SDS011;2830;50.656;7.568;2023-04-15T04:30:57;9.77;;;2.60;;
5616;SDS011;2830;50.656;7.568;2023-04-15T04:33:24;10.75;;;3.10;;
5616;SDS011;2830;50.656;7.568;2023-04-15T04:35:50;12.07;;;2.80;;
5616;SDS011;2830;50.656;7.568;2023-04-15T04:38:17;11.13;;;3.30;;
5616;SDS011;2830;50.656;7.568;2023-04-15T04:40:44;11.10;;;2.92;;
5616;SDS011;2830;50.656;7.568;2023-04-15T04:43:11;9.80;;;2.90;;
5616;SDS011;2830;50.656;7.568;2023-04-15T04:45:38;17.58;;;3.92;;
5616;SDS011;2830;50.656;7.568;2023-04-15T04:48:05;12.60;;;2.67;;
5616;SDS011;2830;50.656;7.568;2023-04-15T04:50:34;12.07;;;3.08;;
5616;SDS011;2830;50.656;7.568;2023-04-15T04:53:01;10.82;;;2.85;;
5616;SDS011;2830;50.656;7.568;2023-04-15T04:55:28;12.85;;;2.92;;
5616;SDS011;2830;50.656;7.568;2023-04-15T04:57:55;10.80;;;2.30;;
5616;SDS011;2830;50.656;7.568;2023-04-15T05:00:21;8.90;;;2.60;;
5616;SDS011;2830;50.656;7.568;2023-04-15T05:02:48;10.63;;;3.75;;
5616;SDS011;2830;50.656;7.568;2023-04-15T05:05:15;14.35;;;3.17;;
5616;SDS011;2830;50.656;7.568;2023-04-15T05:07:42;10.48;;;3.65;;
5616;SDS011;2830;50.656;7.568;2023-04-15T05:10:09;10.25;;;3.05;;
5616;SDS011;2830;50.656;7.568;2023-04-15T05:12:35;10.50;;;2.85;;
5616;SDS011;2830;50.656;7.568;2023-04-15T05:15:04;10.80;;;3.08;;
5616;SDS011;2830;50.656;7.568;2023-04-15T05:17:31;11.50;;;3.97;;
5616;SDS011;2830;50.656;7.568;2023-04-15T05:20:00;13.95;;;5.47;;
5616;SDS011;2830;50.656;7.568;2023-04-15T05:22:30;14.50;;;5.35;;
5616;SDS011;2830;50.656;7.568;2023-04-15T05:24:56;12.18;;;4.57;;
5616;SDS011;2830;50.656;7.568;2023-04-15T05:27:23;14.88;;;5.75;;
5616;SDS011;2830;50.656;7.568;2023-04-15T05:29:50;16.23;;;5.55;;
5616;SDS011;2830;50.656;7.568;2023-04-15T05:32:16;10.48;;;2.85;;
5616;SDS011;2830;50.656;7.568;2023-04-15T05:34:43;10.95;;;2.85;;
5616;SDS011;2830;50.656;7.568;2023-04-15T05:37:10;11.00;;;3.13;;
5616;SDS011;2830;50.656;7.568;2023-04-15T05:39:36;10.35;;;3.25;;
5616;SDS011;2830;50.656;7.568;2023-04-15T05:42:03;10.35;;;2.97;;
5616;SDS011;2830;50.656;7.568;2023-04-15T05:44:31;10.52;;;3.17;;
5616;SDS011;2830;50.656;7.568;2023-04-15T05:46:58;11.93;;;3.30;;
5616;SDS011;2830;50.656;7.568;2023-04-15T05:49:24;9.38;;;2.50;;
5616;SDS011;2830;50.656;7.568;2023-04-15T05:51:51;10.65;;;3.20;;
5616;SDS011;2830;50.656;7.568;2023-04-15T05:54:18;23.45;;;4.55;;
5616;SDS011;2830;50.656;7.568;2023-04-15T05:56:45;16.55;;;4.50;;
5616;SDS011;2830;50.656;7.568;2023-04-15T05:59:12;11.35;;;2.58;;
5616;SDS011;2830;50.656;7.568;2023-04-15T06:01:39;14.05;;;3.35;;
5616;SDS011;2830;50.656;7.568;2023-04-15T06:04:05;11.65;;;2.90;;
5616;SDS011;2830;50.656;7.568;2023-04-15T06:06:32;15.00;;;3.50;;
5616;SDS011;2830;50.656;7.568;2023-04-15T06:08:59;11.60;;;3.40;;
5616;SDS011;2830;50.656;7.568;2023-04-15T06:11:26;14.55;;;4.85;;
5616;SDS011;2830;50.656;7.568;2023-04-15T06:13:53;16.67;;;3.22;;
5616;SDS011;2830;50.656;7.568;2023-04-15T06:16:20;13.48;;;3.75;;
5616;SDS011;2830;50.656;7.568;2023-04-15T06:18:47;9.13;;;2.55;;
5616;SDS011;2830;50.656;7.568;2023-04-15T06:21:14;13.90;;;3.78;;
5616;SDS011;2830;50.656;7.568;2023-04-15T06:23:41;12.23;;;4.05;;
5616;SDS011;2830;50.656;7.568;2023-04-15T06:26:07;13.52;;;4.10;;
5616;SDS011;2830;50.656;7.568;2023-04-15T06:28:35;20.35;;;6.97;;
5616;SDS011;2830;50.656;7.568;2023-04-15T06:31:02;17.27;;;6.18;;
5616;SDS011;2830;50.656;7.568;2023-04-15T06:33:28;17.48;;;5.18;;
5616;SDS011;2830;50.656;7.568;2023-04-15T06:35:55;17.25;;;6.22;;
5616;SDS011;2830;50.656;7.568;2023-04-15T06:38:22;15.13;;;5.10;;
5616;SDS011;2830;50.656;7.568;2023-04-15T06:40:48;14.13;;;5.47;;
5616;SDS011;2830;50.656;7.568;2023-04-15T06:43:15;15.30;;;5.33;;
5616;SDS011;2830;50.656;7.568;2023-04-15T06:45:42;19.57;;;3.47;;
5616;SDS011;2830;50.656;7.568;2023-04-15T06:48:08;12.17;;;2.97;;
5616;SDS011;2830;50.656;7.568;2023-04-15T06:50:35;17.60;;;3.57;;
5616;SDS011;2830;50.656;7.568;2023-04-15T06:53:09;10.47;;;3.03;;
5616;SDS011;2830;50.656;7.568;2023-04-15T06:55:36;13.83;;;4.10;;
5616;SDS011;2830;50.656;7.568;2023-04-15T06:58:03;15.40;;;5.33;;
5616;SDS011;2830;50.656;7.568;2023-04-15T07:00:29;16.10;;;4.57;;
5616;SDS011;2830;50.656;7.568;2023-04-15T07:02:56;12.50;;;3.90;;
5616;SDS011;2830;50.656;7.568;2023-04-15T07:05:23;14.33;;;2.93;;
5616;SDS011;2830;50.656;7.568;2023-04-15T07:07:50;12.93;;;3.13;;
5616;SDS011;2830;50.656;7.568;2023-04-15T07:10:18;13.33;;;3.30;;
5616;SDS011;2830;50.656;7.568;2023-04-15T07:12:45;13.90;;;3.67;;
5616;SDS011;2830;50.656;7.568;2023-04-15T07:15:13;13.13;;;4.07;;
5616;SDS011;2830;50.656;7.568;2023-04-15T07:17:40;15.13;;;3.67;;
5616;SDS011;2830;50.656;7.568;2023-04-15T07:20:08;12.97;;;3.57;;
5616;SDS011;2830;50.656;7.568;2023-04-15T07:22:35;12.97;;;4.40;;
5616;SDS011;2830;50.656;7.568;2023-04-15T07:25:02;14.00;;;3.67;;
5616;SDS011;2830;50.656;7.568;2023-04-15T07:27:29;12.83;;;3.47;;
5616;SDS011;2830;50.656;7.568;2023-04-15T07:29:56;18.07;;;3.80;;
5616;SDS011;2830;50.656;7.568;2023-04-15T07:32:22;15.93;;;4.17;;
5616;SDS011;2830;50.656;7.568;2023-04-15T07:34:49;15.67;;;4.30;;
5616;SDS011;2830;50.656;7.568;2023-04-15T07:37:16;14.97;;;3.87;;
5616;SDS011;2830;50.656;7.568;2023-04-15T07:39:44;14.17;;;4.20;;
5616;SDS011;2830;50.656;7.568;2023-04-15T07:42:10;15.57;;;4.63;;
5616;SDS011;2830;50.656;7.568;2023-04-15T07:44:37;15.13;;;3.60;;
5616;SDS011;2830;50.656;7.568;2023-04-15T07:47:03;17.00;;;4.70;;
5616;SDS011;2830;50.656;7.568;2023-04-15T07:49:31;16.87;;;4.87;;
5616;SDS011;2830;50.656;7.568;2023-04-15T07:51:57;16.20;;;3.90;;
5616;SDS011;2830;50.656;7.568;2023-04-15T07:54:25;43.67;;;22.03;;
5616;SDS011;2830;50.656;7.568;2023-04-15T07:56:52;33.70;;;14.57;;
5616;SDS011;2830;50.656;7.568;2023-04-15T07:59:19;16.30;;;4.40;;
5616;SDS011;2830;50.656;7.568;2023-04-15T08:01:46;18.60;;;5.10;;
5616;SDS011;2830;50.656;7.568;2023-04-15T08:04:14;16.07;;;4.50;;
5616;SDS011;2830;50.656;7.568;2023-04-15T08:06:41;17.47;;;5.20;;
5616;SDS011;2830;50.656;7.568;2023-04-15T08:09:07;17.70;;;4.67;;
5616;SDS011;2830;50.656;7.568;2023-04-15T08:11:34;16.30;;;4.70;;
5616;SDS011;2830;50.656;7.568;2023-04-15T08:14:01;21.10;;;5.57;;
5616;SDS011;2830;50.656;7.568;2023-04-15T08:16:28;14.90;;;4.47;;
5616;SDS011;2830;50.656;7.568;2023-04-15T08:18:55;17.50;;;4.60;;
5616;SDS011;2830;50.656;7.568;2023-04-15T08:21:22;16.57;;;4.50;;
5616;SDS011;2830;50.656;7.568;2023-04-15T08:23:50;19.00;;;7.67;;
5616;SDS011;2830;50.656;7.568;2023-04-15T08:26:18;22.43;;;9.07;;
5616;SDS011;2830;50.656;7.568;2023-04-15T08:28:46;16.17;;;4.37;;
5616;SDS011;2830;50.656;7.568;2023-04-15T08:31:14;17.77;;;4.33;;
5616;SDS011;2830;50.656;7.568;2023-04-15T08:33:41;17.70;;;5.20;;
5616;SDS011;2830;50.656;7.568;2023-04-15T08:36:08;17.00;;;4.40;;
5616;SDS011;2830;50.656;7.568;2023-04-15T08:38:35;17.50;;;4.40;;
5616;SDS011;2830;50.656;7.568;2023-04-15T08:41:16;15.10;;;3.53;;
5616;SDS011;2830;50.656;7.568;2023-04-15T08:43:48;15.57;;;3.40;;
5616;SDS011;2830;50.656;7.568;2023-04-15T08:46:25;18.50;;;3.93;;
5616;SDS011;2830;50.656;7.568;2023-04-15T08:48:54;14.63;;;2.93;;
5616;SDS011;2830;50.656;7.568;2023-04-15T08:51:22;15.10;;;3.70;;
5616;SDS011;2830;50.656;7.568;2023-04-15T08:53:50;14.10;;;3.10;;
5616;SDS011;2830;50.656;7.568;2023-04-15T08:56:17;13.40;;;3.20;;
5616;SDS011;2830;50.656;7.568;2023-04-15T08:58:45;14.37;;;3.13;;
5616;SDS011;2830;50.656;7.568;2023-04-15T09:01:13;16.20;;;3.13;;
5616;SDS011;2830;50.656;7.568;2023-04-15T09:03:40;13.30;;;2.73;;
5616;SDS011;2830;50.656;7.568;2023-04-15T09:06:08;14.50;;;3.00;;
5616;SDS011;2830;50.656;7.568;2023-04-15T09:08:36;13.17;;;2.70;;
5616;SDS011;2830;50.656;7.568;2023-04-15T09:11:04;13.30;;;2.70;;
5616;SDS011;2830;50.656;7.568;2023-04-15T09:13:30;15.63;;;2.60;;
5616;SDS011;2830;50.656;7.568;2023-04-15T09:15:57;13.87;;;2.03;;
5616;SDS011;2830;50.656;7.568;2023-04-15T09:18:30;14.37;;;2.43;;
5616;SDS011;2830;50.656;7.568;2023-04-15T09:21:05;14.67;;;2.13;;
5616;SDS011;2830;50.656;7.568;2023-04-15T09:23:41;13.77;;;1.73;;
5616;SDS011;2830;50.656;7.568;2023-04-15T09:26:34;16.90;;;1.53;;
5616;SDS011;2830;50.656;7.568;2023-04-15T09:29:06;14.30;;;2.20;;
5616;SDS011;2830;50.656;7.568;2023-04-15T09:31:34;14.63;;;1.50;;
5616;SDS011;2830;50.656;7.568;2023-04-15T09:34:02;14.57;;;1.60;;
5616;SDS011;2830;50.656;7.568;2023-04-15T09:36:29;13.00;;;1.20;;
5616;SDS011;2830;50.656;7.568;2023-04-15T09:39:17;17.23;;;1.67;;
5616;SDS011;2830;50.656;7.568;2023-04-15T09:41:44;12.83;;;1.13;;
5616;SDS011;2830;50.656;7.568;2023-04-15T09:44:23;12.93;;;1.20;;
5616;SDS011;2830;50.656;7.568;2023-04-15T09:46:51;12.30;;;1.30;;
5616;SDS011;2830;50.656;7.568;2023-04-15T09:49:18;12.90;;;1.43;;
5616;SDS011;2830;50.656;7.568;2023-04-15T09:51:45;12.30;;;1.20;;
5616;SDS011;2830;50.656;7.568;2023-04-15T09:54:37;14.80;;;1.50;;
5616;SDS011;2830;50.656;7.568;2023-04-15T09:57:08;12.80;;;1.53;;
5616;SDS011;2830;50.656;7.568;2023-04-15T09:59:38;14.47;;;1.50;;
5616;SDS011;2830;50.656;7.568;2023-04-15T10:02:05;13.83;;;1.53;;
5616;SDS011;2830;50.656;7.568;2023-04-15T10:04:38;13.77;;;2.77;;
5616;SDS011;2830;50.656;7.568;2023-04-15T10:07:07;12.80;;;1.60;;
5616;SDS011;2830;50.656;7.568;2023-04-15T10:09:35;18.27;;;1.20;;
5616;SDS011;2830;50.656;7.568;2023-04-15T10:12:03;13.93;;;1.37;;
5616;SDS011;2830;50.656;7.568;2023-04-15T10:14:32;11.80;;;1.17;;
5616;SDS011;2830;50.656;7.568;2023-04-15T10:17:00;11.83;;;1.60;;
5616;SDS011;2830;50.656;7.568;2023-04-15T10:19:30;12.47;;;1.67;;
5616;SDS011;2830;50.656;7.568;2023-04-15T10:21:58;14.23;;;1.60;;
5616;SDS011;2830;50.656;7.568;2023-04-15T10:24:25;11.63;;;1.20;;
5616;SDS011;2830;50.656;7.568;2023-04-15T10:26:53;13.13;;;1.53;;
5616;SDS011;2830;50.656;7.568;2023-04-15T10:29:20;18.90;;;1.30;;
5616;SDS011;2830;50.656;7.568;2023-04-15T10:31:48;12.20;;;1.50;;
5616;SDS011;2830;50.656;7.568;2023-04-15T10:34:16;14.23;;;1.60;;
5616;SDS011;2830;50.656;7.568;2023-04-15T10:36:43;11.90;;;1.07;;
5616;SDS011;2830;50.656;7.568;2023-04-15T10:42:09;12.87;;;1.40;;
5616;SDS011;2830;50.656;7.568;2023-04-15T10:44:41;12.63;;;1.87;;
5616;SDS011;2830;50.656;7.568;2023-04-15T10:47:15;12.03;;;1.70;;
5616;SDS011;2830;50.656;7.568;2023-04-15T10:49:45;11.53;;;1.30;;
5616;SDS011;2830;50.656;7.568;2023-04-15T10:52:14;12.10;;;1.30;;
5616;SDS011;2830;50.656;7.568;2023-04-15T10:54:42;12.00;;;1.33;;
5616;SDS011;2830;50.656;7.568;2023-04-15T10:57:14;12.23;;;1.43;;
5616;SDS011;2830;50.656;7.568;2023-04-15T11:02:38;13.17;;;1.47;;
5616;SDS011;2830;50.656;7.568;2023-04-15T11:05:09;11.73;;;1.57;;
5616;SDS011;2830;50.656;7.568;2023-04-15T11:07:38;11.67;;;1.63;;
5616;SDS011;2830;50.656;7.568;2023-04-15T11:12:52;11.13;;;1.73;;
5616;SDS011;2830;50.656;7.568;2023-04-15T11:18:07;13.37;;;1.53;;
5616;SDS011;2830;50.656;7.568;2023-04-15T11:20:37;12.10;;;2.13;;
5616;SDS011;2830;50.656;7.568;2023-04-15T11:23:06;12.00;;;2.10;;
5616;SDS011;2830;50.656;7.568;2023-04-15T11:25:40;10.90;;;1.87;;
5616;SDS011;2830;50.656;7.568;2023-04-15T11:28:08;11.77;;;2.07;;
5616;SDS011;2830;50.656;7.568;2023-04-15T11:30:36;11.77;;;1.83;;
5616;SDS011;2830;50.656;7.568;2023-04-15T11:33:05;13.07;;;2.30;;
5616;SDS011;2830;50.656;7.568;2023-04-15T11:35:37;12.00;;;2.67;;
5616;SDS011;2830;50.656;7.568;2023-04-15T11:38:10;11.60;;;2.17;;
5616;SDS011;2830;50.656;7.568;2023-04-15T11:40:39;11.03;;;2.10;;
5616;SDS011;2830;50.656;7.568;2023-04-15T11:45:49;12.87;;;2.50;;
5616;SDS011;2830;50.656;7.568;2023-04-15T11:48:21;10.97;;;2.40;;
5616;SDS011;2830;50.656;7.568;2023-04-15T11:50:53;11.67;;;2.60;;
5616;SDS011;2830;50.656;7.568;2023-04-15T11:53:22;11.00;;;2.30;;
5616;SDS011;2830;50.656;7.568;2023-04-15T11:55:50;10.83;;;2.40;;
5616;SDS011;2830;50.656;7.568;2023-04-15T12:00:48;11.07;;;2.60;;
5616;SDS011;2830;50.656;7.568;2023-04-15T12:08:50;11.90;;;3.20;;
5616;SDS011;2830;50.656;7.568;2023-04-15T12:11:28;12.57;;;3.40;;
5616;SDS011;2830;50.656;7.568;2023-04-15T12:14:31;11.70;;;2.97;;
5616;SDS011;2830;50.656;7.568;2023-04-15T12:16:58;14.53;;;4.00;;
5616;SDS011;2830;50.656;7.568;2023-04-15T12:19:31;13.37;;;4.20;;
5616;SDS011;2830;50.656;7.568;2023-04-15T12:22:02;16.57;;;3.80;;
5616;SDS011;2830;50.656;7.568;2023-04-15T12:24:31;14.80;;;4.17;;
5616;SDS011;2830;50.656;7.568;2023-04-15T12:27:02;13.77;;;4.43;;
5616;SDS011;2830;50.656;7.568;2023-04-15T12:29:31;13.03;;;4.40;;
5616;SDS011;2830;50.656;7.568;2023-04-15T12:32:06;14.73;;;4.93;;
5616;SDS011;2830;50.656;7.568;2023-04-15T12:34:35;15.37;;;4.77;;
5616;SDS011;2830;50.656;7.568;2023-04-15T12:37:10;14.50;;;5.13;;
5616;SDS011;2830;50.656;7.568;2023-04-15T12:39:39;16.47;;;5.20;;
5616;SDS011;2830;50.656;7.568;2023-04-15T12:42:10;15.13;;;5.93;;
5616;SDS011;2830;50.656;7.568;2023-04-15T12:44:37;16.20;;;6.70;;
5616;SDS011;2830;50.656;7.568;2023-04-15T12:47:05;15.90;;;6.37;;
5616;SDS011;2830;50.656;7.568;2023-04-15T12:49:33;15.60;;;6.93;;
5616;SDS011;2830;50.656;7.568;2023-04-15T12:52:00;16.20;;;8.13;;
5616;SDS011;2830;50.656;7.568;2023-04-15T12:54:28;17.03;;;7.80;;
5616;SDS011;2830;50.656;7.568;2023-04-15T12:56:55;15.50;;;8.10;;
5616;SDS011;2830;50.656;7.568;2023-04-15T12:59:23;16.57;;;7.50;;
5616;SDS011;2830;50.656;7.568;2023-04-15T13:01:50;19.13;;;8.80;;
5616;SDS011;2830;50.656;7.568;2023-04-15T13:04:19;16.57;;;8.87;;
5616;SDS011;2830;50.656;7.568;2023-04-15T13:06:46;17.20;;;9.23;;
5616;SDS011;2830;50.656;7.568;2023-04-15T13:09:13;22.53;;;9.50;;
5616;SDS011;2830;50.656;7.568;2023-04-15T13:11:39;19.47;;;9.53;;
5616;SDS011;2830;50.656;7.568;2023-04-15T13:14:07;20.77;;;10.37;;
5616;SDS011;2830;50.656;7.568;2023-04-15T13:16:36;21.00;;;10.87;;
5616;SDS011;2830;50.656;7.568;2023-04-15T13:19:03;20.10;;;10.33;;
5616;SDS011;2830;50.656;7.568;2023-04-15T13:21:31;19.00;;;10.37;;
5616;SDS011;2830;50.656;7.568;2023-04-15T13:24:01;19.80;;;10.50;;
5616;SDS011;2830;50.656;7.568;2023-04-15T13:26:28;21.43;;;11.27;;
5616;SDS011;2830;50.656;7.568;2023-04-15T13:28:56;21.63;;;10.27;;
5616;SDS011;2830;50.656;7.568;2023-04-15T13:31:23;25.60;;;11.00;;
5616;SDS011;2830;50.656;7.568;2023-04-15T13:33:50;20.93;;;10.77;;
5616;SDS011;2830;50.656;7.568;2023-04-15T13:36:17;21.70;;;11.07;;
5616;SDS011;2830;50.656;7.568;2023-04-15T13:38:43;18.77;;;8.57;;
5616;SDS011;2830;50.656;7.568;2023-04-15T13:41:10;21.00;;;9.40;;
5616;SDS011;2830;50.656;7.568;2023-04-15T13:43:37;19.30;;;9.40;;
5616;SDS011;2830;50.656;7.568;2023-04-15T13:46:04;21.03;;;10.00;;
5616;SDS011;2830;50.656;7.568;2023-04-15T13:48:30;19.87;;;8.07;;
5616;SDS011;2830;50.656;7.568;2023-04-15T13:50:57;18.70;;;8.60;;
5616;SDS011;2830;50.656;7.568;2023-04-15T13:53:24;16.80;;;6.73;;
5616;SDS011;2830;50.656;7.568;2023-04-15T13:56:04;17.03;;;6.80;;
5616;SDS011;2830;50.656;7.568;2023-04-15T13:58:32;15.37;;;6.50;;
5616;SDS011;2830;50.656;7.568;2023-04-15T14:00:59;17.80;;;6.53;;
5616;SDS011;2830;50.656;7.568;2023-04-15T14:03:28;15.83;;;6.10;;
5616;SDS011;2830;50.656;7.568;2023-04-15T14:05:55;17.77;;;6.43;;
5616;SDS011;2830;50.656;7.568;2023-04-15T14:08:23;15.17;;;5.80;;
5616;SDS011;2830;50.656;7.568;2023-04-15T14:10:50;16.73;;;6.03;;
5616;SDS011;2830;50.656;7.568;2023-04-15T14:13:17;15.90;;;5.90;;
5616;SDS011;2830;50.656;7.568;2023-04-15T14:15:44;21.20;;;6.50;;
5616;SDS011;2830;50.656;7.568;2023-04-15T14:18:11;15.93;;;6.70;;
5616;SDS011;2830;50.656;7.568;2023-04-15T14:20:38;17.20;;;6.70;;
5616;SDS011;2830;50.656;7.568;2023-04-15T14:23:05;15.33;;;6.13;;
5616;SDS011;2830;50.656;7.568;2023-04-15T14:25:32;15.00;;;5.60;;
5616;SDS011;2830;50.656;7.568;2023-04-15T14:27:59;15.13;;;5.63;;
5616;SDS011;2830;50.656;7.568;2023-04-15T14:30:27;15.90;;;5.70;;
5616;SDS011;2830;50.656;7.568;2023-04-15T14:32:53;15.13;;;5.87;;
5616;SDS011;2830;50.656;7.568;2023-04-15T14:35:20;15.10;;;5.20;;
5616;SDS011;2830;50.656;7.568;2023-04-15T14:37:47;14.90;;;5.57;;
5616;SDS011;2830;50.656;7.568;2023-04-15T14:40:13;13.63;;;4.57;;
5616;SDS011;2830;50.656;7.568;2023-04-15T14:42:40;15.93;;;6.37;;
5616;SDS011;2830;50.656;7.568;2023-04-15T14:45:07;15.70;;;6.10;;
5616;SDS011;2830;50.656;7.568;2023-04-15T14:47:34;16.10;;;6.50;;
5616;SDS011;2830;50.656;7.568;2023-04-15T14:50:01;17.90;;;6.70;;
5616;SDS011;2830;50.656;7.568;2023-04-15T14:52:31;22.10;;;6.90;;
5616;SDS011;2830;50.656;7.568;2023-04-15T14:55:09;14.47;;;5.63;;
5616;SDS011;2830;50.656;7.568;2023-04-15T14:57:37;14.07;;;5.40;;
5616;SDS011;2830;50.656;7.568;2023-04-15T15:00:05;14.27;;;5.40;;
5616;SDS011;2830;50.656;7.568;2023-04-15T15:02:33;15.27;;;5.83;;
5616;SDS011;2830;50.656;7.568;2023-04-15T15:05:05;15.10;;;5.90;;
5616;SDS011;2830;50.656;7.568;2023-04-15T15:07:34;15.83;;;6.03;;
5616;SDS011;2830;50.656;7.568;2023-04-15T15:10:02;14.63;;;5.40;;
5616;SDS011;2830;50.656;7.568;2023-04-15T15:12:31;16.93;;;6.50;;
5616;SDS011;2830;50.656;7.568;2023-04-15T15:14:58;16.00;;;6.43;;
5616;SDS011;2830;50.656;7.568;2023-04-15T15:17:28;14.77;;;6.50;;
5616;SDS011;2830;50.656;7.568;2023-04-15T15:19:55;16.37;;;6.80;;
5616;SDS011;2830;50.656;7.568;2023-04-15T15:22:22;18.10;;;6.90;;
5616;SDS011;2830;50.656;7.568;2023-04-15T15:24:50;15.57;;;5.90;;
5616;SDS011;2830;50.656;7.568;2023-04-15T15:27:18;15.13;;;6.10;;
5616;SDS011;2830;50.656;7.568;2023-04-15T15:29:45;15.60;;;6.57;;